sensor_id;sensor_type;location;lat;lon;timestamp;P1;durP1;ratioP1;P2;durP2;ratioP2
32501;SDS011;18952;52.516;13.460;2022-12-11T00:00:47;37.17;;;25.33;;
32501;SDS011;18952;52.516;13.460;2022-12-11T00:03:17;33.22;;;25.13;;
32501;SDS011;18952;52.516;13.460;2022-12-11T00:05:44;38.80;;;25.75;;
32501;SDS011;18952;52.516;13.460;2022-12-11T00:08:11;36.85;;;24.25;;
32501;SDS011;18952;52.516;13.460;2022-12-11T00:10:39;34.67;;;24.45;;
32501;SDS011;18952;52.516;13.460;2022-12-11T00:13:11;38.28;;;24.35;;
32501;SDS011;18952;52.516;13.460;2022-12-11T00:15:38;31.70;;;23.83;;
32501;SDS011;18952;52.516;13.460;2022-12-11T00:18:05;35.92;;;24.77;;
32501;SDS011;18952;52.516;13.460;2022-12-11T00:20:31;36.40;;;23.75;;
32501;SDS011;18952;52.516;13.460;2022-12-11T00:22:58;30.98;;;22.58;;
32501;SDS011;18952;52.516;13.460;2022-12-11T00:25:25;29.02;;;22.10;;
32501;SDS011;18952;52.516;13.460;2022-12-11T00:27:51;33.70;;;23.38;;
32501;SDS011;18952;52.516;13.460;2022-12-11T00:30:18;32.28;;;22.17;;
32501;SDS011;18952;52.516;13.460;2022-12-11T00:32:45;38.22;;;22.70;;
32501;SDS011;18952;52.516;13.460;2022-12-11T00:35:11;33.85;;;24.98;;
32501;SDS011;18952;52.516;13.460;2022-12-11T00:37:39;35.90;;;23.83;;
32501;SDS011;18952;52.516;13.460;2022-12-11T00:40:05;32.65;;;23.40;;
32501;SDS011;18952;52.516;13.460;2022-12-11T00:42:33;32.90;;;24.08;;
32501;SDS011;18952;52.516;13.460;2022-12-11T00:44:59;30.30;;;23.13;;
32501;SDS011;18952;52.516;13.460;2022-12-11T00:47:26;33.95;;;22.30;;
32501;SDS011;18952;52.516;13.460;2022-12-11T00:49:53;33.38;;;23.58;;
32501;SDS011;18952;52.516;13.460;2022-12-11T00:52:19;30.70;;;23.23;;
32501;SDS011;18952;52.516;13.460;2022-12-11T00:54:46;35.45;;;24.55;;
32501;SDS011;18952;52.516;13.460;2022-12-11T00:57:13;34.65;;;23.65;;
32501;SDS011;18952;52.516;13.460;2022-12-11T00:59:40;29.73;;;22.75;;
32501;SDS011;18952;52.516;13.460;2022-12-11T01:02:06;34.47;;;23.27;;
32501;SDS011;18952;52.516;13.460;2022-12-11T01:04:34;33.33;;;24.33;;
32501;SDS011;18952;52.516;13.460;2022-12-11T01:07:01;32.72;;;22.88;;
32501;SDS011;18952;52.516;13.460;2022-12-11T01:09:28;32.20;;;23.63;;
32501;SDS011;18952;52.516;13.460;2022-12-11T01:11:55;34.88;;;24.65;;
32501;SDS011;18952;52.516;13.460;2022-12-11T01:14:22;33.33;;;23.60;;
32501;SDS011;18952;52.516;13.460;2022-12-11T01:16:49;32.38;;;24.98;;
32501;SDS011;18952;52.516;13.460;2022-12-11T01:19:15;36.03;;;23.92;;
32501;SDS011;18952;52.516;13.460;2022-12-11T01:21:42;32.72;;;24.55;;
32501;SDS011;18952;52.516;13.460;2022-12-11T01:24:09;36.08;;;24.55;;
32501;SDS011;18952;52.516;13.460;2022-12-11T01:26:36;38.33;;;25.20;;
32501;SDS011;18952;52.516;13.460;2022-12-11T01:29:02;36.47;;;26.15;;
32501;SDS011;18952;52.516;13.460;2022-12-11T01:31:29;35.65;;;25.35;;
32501;SDS011;18952;52.516;13.460;2022-12-11T01:33:56;33.67;;;25.17;;
32501;SDS011;18952;52.516;13.460;2022-12-11T01:36:23;37.10;;;25.35;;
32501;SDS011;18952;52.516;13.460;2022-12-11T01:38:50;32.58;;;24.38;;
32501;SDS011;18952;52.516;13.460;2022-12-11T01:41:17;34.05;;;25.52;;
32501;SDS011;18952;52.516;13.460;2022-12-11T01:46:29;33.27;;;25.27;;
32501;SDS011;18952;52.516;13.460;2022-12-11T01:48:59;37.60;;;24.92;;
32501;SDS011;18952;52.516;13.460;2022-12-11T01:51:28;32.85;;;24.52;;
32501;SDS011;18952;52.516;13.460;2022-12-11T01:54:00;38.17;;;24.73;;
32501;SDS011;18952;52.516;13.460;2022-12-11T01:56:31;33.40;;;24.85;;
32501;SDS011;18952;52.516;13.460;2022-12-11T01:59:00;33.92;;;25.85;;
32501;SDS011;18952;52.516;13.460;2022-12-11T02:01:31;37.53;;;26.13;;
32501;SDS011;18952;52.516;13.460;2022-12-11T02:03:58;34.95;;;25.00;;
32501;SDS011;18952;52.516;13.460;2022-12-11T02:06:36;34.35;;;24.98;;
32501;SDS011;18952;52.516;13.460;2022-12-11T02:09:06;33.95;;;25.15;;
32501;SDS011;18952;52.516;13.460;2022-12-11T02:14:40;36.25;;;25.27;;
32501;SDS011;18952;52.516;13.460;2022-12-11T02:19:51;34.35;;;25.88;;
32501;SDS011;18952;52.516;13.460;2022-12-11T02:23:23;35.03;;;26.20;;
32501;SDS011;18952;52.516;13.460;2022-12-11T02:31:10;37.17;;;26.75;;
32501;SDS011;18952;52.516;13.460;2022-12-11T02:36:28;38.67;;;26.65;;
32501;SDS011;18952;52.516;13.460;2022-12-11T02:39:00;36.47;;;27.40;;
32501;SDS011;18952;52.516;13.460;2022-12-11T02:41:28;38.95;;;27.50;;
32501;SDS011;18952;52.516;13.460;2022-12-11T02:43:58;37.45;;;26.30;;
32501;SDS011;18952;52.516;13.460;2022-12-11T02:46:27;39.83;;;27.00;;
32501;SDS011;18952;52.516;13.460;2022-12-11T02:48:54;43.67;;;27.67;;
32501;SDS011;18952;52.516;13.460;2022-12-11T02:51:24;37.20;;;27.00;;
32501;SDS011;18952;52.516;13.460;2022-12-11T02:53:55;38.28;;;27.48;;
32501;SDS011;18952;52.516;13.460;2022-12-11T02:56:35;38.05;;;26.65;;
32501;SDS011;18952;52.516;13.460;2022-12-11T02:59:10;39.60;;;26.65;;
32501;SDS011;18952;52.516;13.460;2022-12-11T03:01:40;39.72;;;27.30;;
32501;SDS011;18952;52.516;13.460;2022-12-11T03:04:08;41.70;;;28.10;;
32501;SDS011;18952;52.516;13.460;2022-12-11T03:06:36;40.83;;;27.98;;
32501;SDS011;18952;52.516;13.460;2022-12-11T03:09:08;40.83;;;28.30;;
32501;SDS011;18952;52.516;13.460;2022-12-11T03:11:35;39.70;;;27.13;;
32501;SDS011;18952;52.516;13.460;2022-12-11T03:14:02;46.08;;;29.27;;
32501;SDS011;18952;52.516;13.460;2022-12-11T03:16:36;43.13;;;28.63;;
32501;SDS011;18952;52.516;13.460;2022-12-11T03:27:09;41.90;;;29.02;;
32501;SDS011;18952;52.516;13.460;2022-12-11T03:29:47;39.40;;;28.35;;
32501;SDS011;18952;52.516;13.460;2022-12-11T03:32:27;40.15;;;27.88;;
32501;SDS011;18952;52.516;13.460;2022-12-11T03:37:31;37.25;;;27.73;;
32501;SDS011;18952;52.516;13.460;2022-12-11T03:40:04;43.22;;;28.67;;
32501;SDS011;18952;52.516;13.460;2022-12-11T03:42:41;40.08;;;28.02;;
32501;SDS011;18952;52.516;13.460;2022-12-11T03:45:10;42.85;;;28.23;;
32501;SDS011;18952;52.516;13.460;2022-12-11T03:47:38;40.03;;;27.17;;
32501;SDS011;18952;52.516;13.460;2022-12-11T03:50:08;39.90;;;27.70;;
32501;SDS011;18952;52.516;13.460;2022-12-11T03:52:39;41.13;;;27.83;;
32501;SDS011;18952;52.516;13.460;2022-12-11T03:55:11;42.10;;;27.73;;
32501;SDS011;18952;52.516;13.460;2022-12-11T03:57:40;41.72;;;27.23;;
32501;SDS011;18952;52.516;13.460;2022-12-11T04:00:11;39.42;;;27.25;;
32501;SDS011;18952;52.516;13.460;2022-12-11T04:02:41;41.70;;;27.48;;
32501;SDS011;18952;52.516;13.460;2022-12-11T04:05:08;46.05;;;28.02;;
32501;SDS011;18952;52.516;13.460;2022-12-11T04:07:36;41.65;;;27.70;;
32501;SDS011;18952;52.516;13.460;2022-12-11T04:10:04;44.45;;;29.55;;
32501;SDS011;18952;52.516;13.460;2022-12-11T04:12:31;40.92;;;27.10;;
32501;SDS011;18952;52.516;13.460;2022-12-11T04:14:57;45.97;;;27.23;;
32501;SDS011;18952;52.516;13.460;2022-12-11T04:17:24;39.78;;;27.08;;
32501;SDS011;18952;52.516;13.460;2022-12-11T04:19:51;40.38;;;26.83;;
32501;SDS011;18952;52.516;13.460;2022-12-11T04:22:18;40.33;;;25.85;;
32501;SDS011;18952;52.516;13.460;2022-12-11T04:24:46;39.55;;;27.20;;
32501;SDS011;18952;52.516;13.460;2022-12-11T04:27:13;39.50;;;27.27;;
32501;SDS011;18952;52.516;13.460;2022-12-11T04:29:40;40.88;;;27.35;;
32501;SDS011;18952;52.516;13.460;2022-12-11T04:32:07;40.60;;;27.05;;
32501;SDS011;18952;52.516;13.460;2022-12-11T04:34:34;39.05;;;26.55;;
32501;SDS011;18952;52.516;13.460;2022-12-11T04:37:00;37.95;;;28.08;;
32501;SDS011;18952;52.516;13.460;2022-12-11T04:39:27;41.70;;;28.48;;
32501;SDS011;18952;52.516;13.460;2022-12-11T04:41:54;44.00;;;29.88;;
32501;SDS011;18952;52.516;13.460;2022-12-11T04:44:20;41.13;;;29.17;;
32501;SDS011;18952;52.516;13.460;2022-12-11T04:46:47;44.42;;;29.77;;
32501;SDS011;18952;52.516;13.460;2022-12-11T04:49:14;45.05;;;30.40;;
32501;SDS011;18952;52.516;13.460;2022-12-11T04:51:41;40.92;;;31.08;;
32501;SDS011;18952;52.516;13.460;2022-12-11T04:54:07;44.58;;;29.92;;
32501;SDS011;18952;52.516;13.460;2022-12-11T04:56:34;44.42;;;29.67;;
32501;SDS011;18952;52.516;13.460;2022-12-11T04:59:01;44.50;;;29.55;;
32501;SDS011;18952;52.516;13.460;2022-12-11T05:01:27;43.35;;;29.92;;
32501;SDS011;18952;52.516;13.460;2022-12-11T05:03:54;41.03;;;29.42;;
32501;SDS011;18952;52.516;13.460;2022-12-11T05:06:21;40.67;;;28.90;;
32501;SDS011;18952;52.516;13.460;2022-12-11T05:08:47;44.15;;;29.52;;
32501;SDS011;18952;52.516;13.460;2022-12-11T05:11:14;41.10;;;29.42;;
32501;SDS011;18952;52.516;13.460;2022-12-11T05:13:41;41.75;;;29.27;;
32501;SDS011;18952;52.516;13.460;2022-12-11T05:16:09;40.38;;;30.17;;
32501;SDS011;18952;52.516;13.460;2022-12-11T05:18:38;41.85;;;30.13;;
32501;SDS011;18952;52.516;13.460;2022-12-11T05:21:06;41.47;;;30.20;;
32501;SDS011;18952;52.516;13.460;2022-12-11T05:23:36;42.35;;;31.55;;
32501;SDS011;18952;52.516;13.460;2022-12-11T05:26:04;48.42;;;30.17;;
32501;SDS011;18952;52.516;13.460;2022-12-11T05:28:38;42.97;;;29.27;;
32501;SDS011;18952;52.516;13.460;2022-12-11T05:31:12;38.20;;;29.30;;
32501;SDS011;18952;52.516;13.460;2022-12-11T05:33:41;42.33;;;29.38;;
32501;SDS011;18952;52.516;13.460;2022-12-11T05:36:12;42.67;;;29.58;;
32501;SDS011;18952;52.516;13.460;2022-12-11T05:38:42;41.05;;;28.85;;
32501;SDS011;18952;52.516;13.460;2022-12-11T05:41:09;41.97;;;27.58;;
32501;SDS011;18952;52.516;13.460;2022-12-11T05:43:38;42.83;;;28.88;;
32501;SDS011;18952;52.516;13.460;2022-12-11T05:46:06;40.80;;;28.38;;
32501;SDS011;18952;52.516;13.460;2022-12-11T05:48:43;43.58;;;30.15;;
32501;SDS011;18952;52.516;13.460;2022-12-11T05:51:12;39.25;;;28.33;;
32501;SDS011;18952;52.516;13.460;2022-12-11T05:53:40;40.42;;;28.13;;
32501;SDS011;18952;52.516;13.460;2022-12-11T05:56:12;39.53;;;28.38;;
32501;SDS011;18952;52.516;13.460;2022-12-11T05:58:40;42.97;;;28.38;;
32501;SDS011;18952;52.516;13.460;2022-12-11T06:01:08;44.22;;;28.98;;
32501;SDS011;18952;52.516;13.460;2022-12-11T06:03:37;46.00;;;28.13;;
32501;SDS011;18952;52.516;13.460;2022-12-11T06:06:05;41.47;;;27.98;;
32501;SDS011;18952;52.516;13.460;2022-12-11T06:08:32;40.92;;;27.40;;
32501;SDS011;18952;52.516;13.460;2022-12-11T06:11:00;38.15;;;26.77;;
32501;SDS011;18952;52.516;13.460;2022-12-11T06:13:27;35.78;;;25.20;;
32501;SDS011;18952;52.516;13.460;2022-12-11T06:15:53;33.33;;;24.17;;
32501;SDS011;18952;52.516;13.460;2022-12-11T06:18:21;34.50;;;24.35;;
32501;SDS011;18952;52.516;13.460;2022-12-11T06:20:47;34.67;;;25.35;;
32501;SDS011;18952;52.516;13.460;2022-12-11T06:23:14;36.45;;;24.60;;
32501;SDS011;18952;52.516;13.460;2022-12-11T06:25:41;36.10;;;24.60;;
32501;SDS011;18952;52.516;13.460;2022-12-11T06:28:07;33.15;;;24.38;;
32501;SDS011;18952;52.516;13.460;2022-12-11T06:30:34;33.78;;;24.92;;
32501;SDS011;18952;52.516;13.460;2022-12-11T06:33:04;35.92;;;25.38;;
32501;SDS011;18952;52.516;13.460;2022-12-11T06:35:31;36.03;;;24.73;;
32501;SDS011;18952;52.516;13.460;2022-12-11T06:38:06;32.28;;;24.70;;
32501;SDS011;18952;52.516;13.460;2022-12-11T06:40:33;36.05;;;26.00;;
32501;SDS011;18952;52.516;13.460;2022-12-11T06:43:00;34.60;;;25.17;;
32501;SDS011;18952;52.516;13.460;2022-12-11T06:45:27;36.13;;;25.25;;
32501;SDS011;18952;52.516;13.460;2022-12-11T06:47:53;34.60;;;24.40;;
32501;SDS011;18952;52.516;13.460;2022-12-11T06:50:20;34.88;;;24.35;;
32501;SDS011;18952;52.516;13.460;2022-12-11T06:52:47;31.83;;;23.27;;
32501;SDS011;18952;52.516;13.460;2022-12-11T06:55:14;32.45;;;24.20;;
32501;SDS011;18952;52.516;13.460;2022-12-11T06:57:41;32.80;;;23.67;;
32501;SDS011;18952;52.516;13.460;2022-12-11T07:00:08;33.08;;;24.63;;
32501;SDS011;18952;52.516;13.460;2022-12-11T07:02:35;38.63;;;26.30;;
32501;SDS011;18952;52.516;13.460;2022-12-11T07:05:02;33.65;;;23.75;;
32501;SDS011;18952;52.516;13.460;2022-12-11T07:07:28;33.65;;;24.70;;
32501;SDS011;18952;52.516;13.460;2022-12-11T07:09:55;33.72;;;24.15;;
32501;SDS011;18952;52.516;13.460;2022-12-11T07:12:22;34.92;;;24.98;;
32501;SDS011;18952;52.516;13.460;2022-12-11T07:14:49;33.28;;;25.52;;
32501;SDS011;18952;52.516;13.460;2022-12-11T07:17:15;31.85;;;23.27;;
32501;SDS011;18952;52.516;13.460;2022-12-11T07:19:42;31.20;;;22.83;;
32501;SDS011;18952;52.516;13.460;2022-12-11T07:22:09;32.67;;;21.90;;
32501;SDS011;18952;52.516;13.460;2022-12-11T07:24:35;29.40;;;20.95;;
32501;SDS011;18952;52.516;13.460;2022-12-11T07:27:03;35.70;;;22.48;;
32501;SDS011;18952;52.516;13.460;2022-12-11T07:29:29;30.90;;;21.33;;
32501;SDS011;18952;52.516;13.460;2022-12-11T07:31:56;32.67;;;23.40;;
32501;SDS011;18952;52.516;13.460;2022-12-11T07:34:23;28.42;;;19.50;;
32501;SDS011;18952;52.516;13.460;2022-12-11T07:36:50;26.98;;;18.73;;
32501;SDS011;18952;52.516;13.460;2022-12-11T07:39:16;25.48;;;18.33;;
32501;SDS011;18952;52.516;13.460;2022-12-11T07:41:43;26.77;;;19.42;;
32501;SDS011;18952;52.516;13.460;2022-12-11T07:44:10;26.60;;;19.33;;
32501;SDS011;18952;52.516;13.460;2022-12-11T07:46:36;27.70;;;19.80;;
32501;SDS011;18952;52.516;13.460;2022-12-11T07:49:03;28.67;;;19.70;;
32501;SDS011;18952;52.516;13.460;2022-12-11T07:51:32;29.52;;;18.42;;
32501;SDS011;18952;52.516;13.460;2022-12-11T07:54:02;28.15;;;20.35;;
32501;SDS011;18952;52.516;13.460;2022-12-11T07:56:30;28.42;;;20.52;;
32501;SDS011;18952;52.516;13.460;2022-12-11T07:58:58;26.95;;;20.95;;
32501;SDS011;18952;52.516;13.460;2022-12-11T08:01:27;30.00;;;20.15;;
32501;SDS011;18952;52.516;13.460;2022-12-11T08:03:54;29.20;;;20.25;;
32501;SDS011;18952;52.516;13.460;2022-12-11T08:06:26;28.77;;;20.65;;
32501;SDS011;18952;52.516;13.460;2022-12-11T08:08:57;27.75;;;20.70;;
32501;SDS011;18952;52.516;13.460;2022-12-11T08:11:25;27.27;;;19.65;;
32501;SDS011;18952;52.516;13.460;2022-12-11T08:13:52;32.25;;;20.40;;
32501;SDS011;18952;52.516;13.460;2022-12-11T08:16:20;27.80;;;20.23;;
32501;SDS011;18952;52.516;13.460;2022-12-11T08:18:47;27.92;;;20.27;;
32501;SDS011;18952;52.516;13.460;2022-12-11T08:21:18;28.70;;;20.88;;
32501;SDS011;18952;52.516;13.460;2022-12-11T08:23:50;30.35;;;21.35;;
32501;SDS011;18952;52.516;13.460;2022-12-11T08:26:19;31.65;;;21.45;;
32501;SDS011;18952;52.516;13.460;2022-12-11T08:28:47;30.70;;;22.02;;
32501;SDS011;18952;52.516;13.460;2022-12-11T08:31:14;27.92;;;20.95;;
32501;SDS011;18952;52.516;13.460;2022-12-11T08:33:42;34.58;;;23.25;;
32501;SDS011;18952;52.516;13.460;2022-12-11T08:36:11;32.13;;;22.50;;
32501;SDS011;18952;52.516;13.460;2022-12-11T08:38:39;35.38;;;24.55;;
32501;SDS011;18952;52.516;13.460;2022-12-11T08:41:17;29.83;;;21.25;;
32501;SDS011;18952;52.516;13.460;2022-12-11T08:43:45;30.48;;;21.15;;
32501;SDS011;18952;52.516;13.460;2022-12-11T08:46:13;29.05;;;21.38;;
32501;SDS011;18952;52.516;13.460;2022-12-11T08:48:41;29.05;;;21.60;;
32501;SDS011;18952;52.516;13.460;2022-12-11T08:51:12;33.17;;;22.13;;
32501;SDS011;18952;52.516;13.460;2022-12-11T08:53:40;29.92;;;21.25;;
32501;SDS011;18952;52.516;13.460;2022-12-11T08:56:11;31.17;;;22.30;;
32501;SDS011;18952;52.516;13.460;2022-12-11T08:58:40;36.47;;;24.25;;
32501;SDS011;18952;52.516;13.460;2022-12-11T09:01:09;29.52;;;20.70;;
32501;SDS011;18952;52.516;13.460;2022-12-11T09:03:38;31.75;;;21.63;;
32501;SDS011;18952;52.516;13.460;2022-12-11T09:06:05;29.83;;;20.73;;
32501;SDS011;18952;52.516;13.460;2022-12-11T09:08:34;29.63;;;20.85;;
32501;SDS011;18952;52.516;13.460;2022-12-11T09:11:05;31.08;;;21.95;;
32501;SDS011;18952;52.516;13.460;2022-12-11T09:13:36;29.85;;;21.23;;
32501;SDS011;18952;52.516;13.460;2022-12-11T09:16:05;29.95;;;22.23;;
32501;SDS011;18952;52.516;13.460;2022-12-11T09:18:32;29.60;;;21.55;;
32501;SDS011;18952;52.516;13.460;2022-12-11T09:21:03;30.85;;;22.40;;
32501;SDS011;18952;52.516;13.460;2022-12-11T09:23:32;32.13;;;22.25;;
32501;SDS011;18952;52.516;13.460;2022-12-11T09:25:59;29.48;;;20.83;;
32501;SDS011;18952;52.516;13.460;2022-12-11T09:28:30;31.90;;;21.95;;
32501;SDS011;18952;52.516;13.460;2022-12-11T09:30:56;33.60;;;23.70;;
32501;SDS011;18952;52.516;13.460;2022-12-11T09:33:23;34.22;;;24.27;;
32501;SDS011;18952;52.516;13.460;2022-12-11T09:35:59;31.88;;;22.08;;
32501;SDS011;18952;52.516;13.460;2022-12-11T09:38:27;32.53;;;22.45;;
32501;SDS011;18952;52.516;13.460;2022-12-11T09:40:55;31.95;;;21.75;;
32501;SDS011;18952;52.516;13.460;2022-12-11T09:46:13;27.70;;;21.27;;
32501;SDS011;18952;52.516;13.460;2022-12-11T09:48:42;29.88;;;20.75;;
32501;SDS011;18952;52.516;13.460;2022-12-11T09:51:13;31.27;;;22.02;;
32501;SDS011;18952;52.516;13.460;2022-12-11T09:53:46;28.50;;;21.98;;
32501;SDS011;18952;52.516;13.460;2022-12-11T09:58:56;32.45;;;20.08;;
32501;SDS011;18952;52.516;13.460;2022-12-11T10:01:54;25.95;;;19.30;;
32501;SDS011;18952;52.516;13.460;2022-12-11T10:07:40;29.27;;;20.63;;
32501;SDS011;18952;52.516;13.460;2022-12-11T10:10:35;29.70;;;20.65;;
32501;SDS011;18952;52.516;13.460;2022-12-11T10:18:45;28.98;;;20.75;;
32501;SDS011;18952;52.516;13.460;2022-12-11T10:21:14;57.65;;;40.15;;
32501;SDS011;18952;52.516;13.460;2022-12-11T10:23:55;28.63;;;20.83;;
32501;SDS011;18952;52.516;13.460;2022-12-11T10:26:26;26.42;;;20.45;;
32501;SDS011;18952;52.516;13.460;2022-12-11T10:28:58;27.33;;;20.65;;
32501;SDS011;18952;52.516;13.460;2022-12-11T10:34:19;29.27;;;20.95;;
32501;SDS011;18952;52.516;13.460;2022-12-11T10:36:47;29.48;;;21.15;;
32501;SDS011;18952;52.516;13.460;2022-12-11T10:39:15;29.90;;;21.25;;
32501;SDS011;18952;52.516;13.460;2022-12-11T10:41:50;27.48;;;20.50;;
32501;SDS011;18952;52.516;13.460;2022-12-11T10:46:48;29.55;;;21.00;;
32501;SDS011;18952;52.516;13.460;2022-12-11T10:49:32;30.38;;;21.35;;
32501;SDS011;18952;52.516;13.460;2022-12-11T10:52:01;30.48;;;21.52;;
32501;SDS011;18952;52.516;13.460;2022-12-11T10:54:38;31.42;;;20.58;;
32501;SDS011;18952;52.516;13.460;2022-12-11T10:57:07;31.08;;;21.40;;
32501;SDS011;18952;52.516;13.460;2022-12-11T10:59:43;29.05;;;20.45;;
32501;SDS011;18952;52.516;13.460;2022-12-11T11:04:58;30.30;;;21.48;;
32501;SDS011;18952;52.516;13.460;2022-12-11T11:07:27;28.83;;;20.05;;
32501;SDS011;18952;52.516;13.460;2022-12-11T11:12:47;29.70;;;20.70;;
32501;SDS011;18952;52.516;13.460;2022-12-11T11:15:25;26.80;;;19.73;;
32501;SDS011;18952;52.516;13.460;2022-12-11T11:17:55;25.67;;;19.58;;
32501;SDS011;18952;52.516;13.460;2022-12-11T11:20:41;29.48;;;20.63;;
32501;SDS011;18952;52.516;13.460;2022-12-11T11:23:13;29.05;;;21.40;;
32501;SDS011;18952;52.516;13.460;2022-12-11T11:25:48;27.60;;;21.23;;
32501;SDS011;18952;52.516;13.460;2022-12-11T11:28:24;31.20;;;21.48;;
32501;SDS011;18952;52.516;13.460;2022-12-11T11:31:04;28.52;;;20.70;;
32501;SDS011;18952;52.516;13.460;2022-12-11T11:33:58;32.45;;;21.45;;
32501;SDS011;18952;52.516;13.460;2022-12-11T11:36:32;30.45;;;21.73;;
32501;SDS011;18952;52.516;13.460;2022-12-11T11:41:59;30.10;;;20.85;;
32501;SDS011;18952;52.516;13.460;2022-12-11T11:47:57;32.15;;;22.33;;
32501;SDS011;18952;52.516;13.460;2022-12-11T11:50:36;28.20;;;21.60;;
32501;SDS011;18952;52.516;13.460;2022-12-11T11:53:15;26.00;;;20.95;;
32501;SDS011;18952;52.516;13.460;2022-12-11T11:56:00;31.90;;;21.60;;
32501;SDS011;18952;52.516;13.460;2022-12-11T11:58:51;29.65;;;22.60;;
32501;SDS011;18952;52.516;13.460;2022-12-11T12:01:45;30.30;;;21.70;;
32501;SDS011;18952;52.516;13.460;2022-12-11T12:04:12;29.92;;;21.98;;
32501;SDS011;18952;52.516;13.460;2022-12-11T12:06:54;29.08;;;21.77;;
32501;SDS011;18952;52.516;13.460;2022-12-11T12:12:18;31.50;;;21.20;;
32501;SDS011;18952;52.516;13.460;2022-12-11T12:17:39;30.20;;;20.70;;
32501;SDS011;18952;52.516;13.460;2022-12-11T12:26:14;29.30;;;20.15;;
32501;SDS011;18952;52.516;13.460;2022-12-11T12:42:46;29.10;;;21.52;;
32501;SDS011;18952;52.516;13.460;2022-12-11T12:47:48;30.75;;;21.10;;
32501;SDS011;18952;52.516;13.460;2022-12-11T12:50:19;31.25;;;21.05;;
32501;SDS011;18952;52.516;13.460;2022-12-11T12:52:52;29.45;;;20.27;;
32501;SDS011;18952;52.516;13.460;2022-12-11T12:55:22;36.13;;;21.98;;
32501;SDS011;18952;52.516;13.460;2022-12-11T12:57:56;29.90;;;20.95;;
32501;SDS011;18952;52.516;13.460;2022-12-11T13:03:15;28.95;;;21.08;;
32501;SDS011;18952;52.516;13.460;2022-12-11T13:05:43;32.05;;;21.75;;
32501;SDS011;18952;52.516;13.460;2022-12-11T13:08:26;30.63;;;21.15;;
32501;SDS011;18952;52.516;13.460;2022-12-11T13:11:06;29.65;;;20.98;;
32501;SDS011;18952;52.516;13.460;2022-12-11T13:16:52;28.23;;;21.83;;
32501;SDS011;18952;52.516;13.460;2022-12-11T13:19:00;33.38;;;21.35;;
32501;SDS011;18952;52.516;13.460;2022-12-11T13:21:31;31.60;;;21.40;;
32501;SDS011;18952;52.516;13.460;2022-12-11T13:24:13;30.85;;;21.50;;
32501;SDS011;18952;52.516;13.460;2022-12-11T13:26:42;32.97;;;23.20;;
32501;SDS011;18952;52.516;13.460;2022-12-11T13:34:38;31.25;;;23.33;;
32501;SDS011;18952;52.516;13.460;2022-12-11T13:39:58;29.20;;;22.10;;
32501;SDS011;18952;52.516;13.460;2022-12-11T13:42:32;34.05;;;22.15;;
32501;SDS011;18952;52.516;13.460;2022-12-11T13:45:02;32.83;;;22.13;;
32501;SDS011;18952;52.516;13.460;2022-12-11T13:47:29;34.88;;;23.88;;
32501;SDS011;18952;52.516;13.460;2022-12-11T13:50:18;30.90;;;23.63;;
32501;SDS011;18952;52.516;13.460;2022-12-11T13:52:52;30.45;;;22.85;;
32501;SDS011;18952;52.516;13.460;2022-12-11T13:55:24;28.35;;;21.77;;
32501;SDS011;18952;52.516;13.460;2022-12-11T13:57:52;32.08;;;22.73;;
32501;SDS011;18952;52.516;13.460;2022-12-11T14:00:20;34.30;;;23.52;;
32501;SDS011;18952;52.516;13.460;2022-12-11T14:02:49;33.53;;;23.27;;
32501;SDS011;18952;52.516;13.460;2022-12-11T14:05:18;31.20;;;23.67;;
32501;SDS011;18952;52.516;13.460;2022-12-11T14:07:46;32.58;;;24.15;;
32501;SDS011;18952;52.516;13.460;2022-12-11T14:10:17;32.83;;;25.10;;
32501;SDS011;18952;52.516;13.460;2022-12-11T14:15:32;34.55;;;23.52;;
32501;SDS011;18952;52.516;13.460;2022-12-11T14:18:01;35.22;;;24.65;;
32501;SDS011;18952;52.516;13.460;2022-12-11T14:20:30;30.90;;;22.83;;
32501;SDS011;18952;52.516;13.460;2022-12-11T14:23:18;30.92;;;23.50;;
32501;SDS011;18952;52.516;13.460;2022-12-11T14:25:55;31.77;;;23.75;;
32501;SDS011;18952;52.516;13.460;2022-12-11T14:28:23;32.83;;;24.00;;
32501;SDS011;18952;52.516;13.460;2022-12-11T14:30:51;32.75;;;24.27;;
32501;SDS011;18952;52.516;13.460;2022-12-11T14:33:54;33.95;;;23.40;;
32501;SDS011;18952;52.516;13.460;2022-12-11T14:36:16;35.50;;;23.95;;
32501;SDS011;18952;52.516;13.460;2022-12-11T14:38:48;30.92;;;24.02;;
32501;SDS011;18952;52.516;13.460;2022-12-11T14:41:22;30.73;;;23.63;;
32501;SDS011;18952;52.516;13.460;2022-12-11T14:43:53;34.42;;;24.98;;
32501;SDS011;18952;52.516;13.460;2022-12-11T14:52:15;32.65;;;24.05;;
32501;SDS011;18952;52.516;13.460;2022-12-11T14:54:55;36.10;;;24.15;;
32501;SDS011;18952;52.516;13.460;2022-12-11T14:57:27;38.22;;;24.95;;
32501;SDS011;18952;52.516;13.460;2022-12-11T14:59:56;34.38;;;24.42;;
32501;SDS011;18952;52.516;13.460;2022-12-11T15:04:58;34.13;;;24.20;;
32501;SDS011;18952;52.516;13.460;2022-12-11T15:07:52;36.40;;;25.90;;
32501;SDS011;18952;52.516;13.460;2022-12-11T15:10:26;37.13;;;24.88;;
32501;SDS011;18952;52.516;13.460;2022-12-11T15:12:57;33.50;;;24.13;;
32501;SDS011;18952;52.516;13.460;2022-12-11T15:15:24;32.75;;;25.50;;
32501;SDS011;18952;52.516;13.460;2022-12-11T15:17:53;32.58;;;24.90;;
32501;SDS011;18952;52.516;13.460;2022-12-11T15:20:21;34.95;;;25.48;;
32501;SDS011;18952;52.516;13.460;2022-12-11T15:22:51;34.90;;;25.25;;
32501;SDS011;18952;52.516;13.460;2022-12-11T15:25:22;34.97;;;25.33;;
32501;SDS011;18952;52.516;13.460;2022-12-11T15:27:52;38.95;;;25.52;;
32501;SDS011;18952;52.516;13.460;2022-12-11T15:32:47;37.30;;;26.00;;
32501;SDS011;18952;52.516;13.460;2022-12-11T15:35:26;38.03;;;25.83;;
32501;SDS011;18952;52.516;13.460;2022-12-11T15:37:54;36.60;;;25.92;;
32501;SDS011;18952;52.516;13.460;2022-12-11T15:40:21;35.72;;;26.08;;
32501;SDS011;18952;52.516;13.460;2022-12-11T15:42:49;37.53;;;26.27;;
32501;SDS011;18952;52.516;13.460;2022-12-11T15:45:18;34.35;;;25.05;;
32501;SDS011;18952;52.516;13.460;2022-12-11T15:47:46;38.22;;;26.20;;
32501;SDS011;18952;52.516;13.460;2022-12-11T15:52:48;35.28;;;25.20;;
32501;SDS011;18952;52.516;13.460;2022-12-11T15:55:16;37.25;;;26.90;;
32501;SDS011;18952;52.516;13.460;2022-12-11T15:57:44;35.10;;;26.90;;
32501;SDS011;18952;52.516;13.460;2022-12-11T16:00:17;34.40;;;26.02;;
32501;SDS011;18952;52.516;13.460;2022-12-11T16:02:45;39.53;;;26.45;;
32501;SDS011;18952;52.516;13.460;2022-12-11T16:05:13;35.78;;;25.58;;
32501;SDS011;18952;52.516;13.460;2022-12-11T16:07:40;34.20;;;26.02;;
32501;SDS011;18952;52.516;13.460;2022-12-11T16:10:11;35.20;;;25.73;;
32501;SDS011;18952;52.516;13.460;2022-12-11T16:12:40;34.97;;;26.17;;
32501;SDS011;18952;52.516;13.460;2022-12-11T16:15:08;35.08;;;25.95;;
32501;SDS011;18952;52.516;13.460;2022-12-11T16:17:36;32.95;;;25.73;;
32501;SDS011;18952;52.516;13.460;2022-12-11T16:20:03;33.47;;;25.20;;
32501;SDS011;18952;52.516;13.460;2022-12-11T16:22:30;34.25;;;25.42;;